Time;durP1;ratioP1;P1;durP2;ratioP2;P2;SDS_P1;SDS_P2;PMS_P1;PMS_P2;Temp;Humidity;BMP_temperature;BMP_pressure;BME280_temperature;BME280_humidity;BME280_pressure;Samples;Min_cycle;Max_cycle;Signal;HPM_P1;HPM_P2
2023/11/25 00:03:01;;;;;;;1.47;0.50;;;2.40;99.90;;;;;;2584659;54;20044;31
2023/11/25 00:05:43;;;;;;;1.30;0.60;;;2.40;99.90;;;;;;2683345;39;21036;31
2023/11/25 00:14:41;;;;;;;2.60;0.60;;;2.30;99.90;;;;;;2584827;54;20085;31
2023/11/25 00:17:17;;;;;;;1.83;0.70;;;2.30;99.90;;;;;;2585157;54;19941;31
2023/11/25 00:19:53;;;;;;;2.40;0.70;;;2.30;99.90;;;;;;2585285;54;20030;31
2023/11/25 00:22:26;;;;;;;1.60;0.80;;;2.30;99.90;;;;;;2584995;54;20038;31
2023/11/25 00:24:59;;;;;;;3.23;0.70;;;2.30;99.90;;;;;;2585060;54;20115;31
2023/11/25 00:27:33;;;;;;;1.20;0.70;;;2.30;99.90;;;;;;2585157;54;20038;31
2023/11/25 00:30:07;;;;;;;1.50;0.60;;;2.30;99.90;;;;;;2683091;39;21105;31
2023/11/25 00:32:41;;;;;;;0.98;0.50;;;2.30;99.90;;;;;;2585948;54;21177;31
2023/11/25 00:35:18;;;;;;;0.50;0.22;;;2.30;99.90;;;;;;2604190;46;20026;31
2023/11/25 00:37:52;;;;;;;2.80;0.70;;;2.10;99.90;;;;;;2585795;54;20046;31
2023/11/25 00:40:28;;;;;;;1.60;0.68;;;1.90;99.90;;;;;;2585775;54;20034;31
2023/11/25 00:43:03;;;;;;;0.77;0.30;;;1.90;99.90;;;;;;2604475;46;20033;31
2023/11/25 00:45:39;;;;;;;0.30;0.20;;;1.80;99.90;;;;;;2585738;54;21010;31
2023/11/25 00:48:16;;;;;;;0.40;0.15;;;1.80;99.90;;;;;;2604340;46;20927;31
2023/11/25 00:50:53;;;;;;;0.45;0.20;;;1.70;99.90;;;;;;2585844;54;21144;31
2023/11/25 00:53:31;;;;;;;1.60;0.30;;;1.60;99.90;;;;;;2585969;54;20062;31
2023/11/25 00:56:06;;;;;;;0.60;0.10;;;1.60;99.90;;;;;;2585762;54;20815;31
2023/11/25 00:58:40;;;;;;;0.40;0.22;;;1.60;99.90;;;;;;2683823;39;21129;31
2023/11/25 01:01:15;;;;;;;1.35;0.40;;;1.60;99.90;;;;;;2585770;54;20030;31
2023/11/25 01:03:48;;;;;;;1.70;0.60;;;1.60;99.90;;;;;;2604088;46;20765;31
2023/11/25 01:06:24;;;;;;;0.32;0.28;;;1.60;99.90;;;;;;2702468;39;22334;31
2023/11/25 01:08:58;;;;;;;0.80;0.30;;;1.60;99.90;;;;;;2585877;54;20031;31
2023/11/25 01:14:23;;;;;;;0.40;0.13;;;1.50;99.90;;;;;;2604636;46;21150;31
2023/11/25 01:17:00;;;;;;;0.13;0.10;;;1.50;99.90;;;;;;2604067;46;20072;31
2023/11/25 01:19:35;;;;;;;0.63;0.20;;;1.50;99.90;;;;;;2585218;54;20145;31
2023/11/25 01:22:16;;;;;;;0.80;0.10;;;1.50;99.90;;;;;;2585837;54;20947;31
2023/11/25 01:24:50;;;;;;;1.23;0.17;;;1.50;99.90;;;;;;2585459;54;20974;31
2023/11/25 01:27:25;;;;;;;0.25;0.10;;;1.50;99.90;;;;;;2585716;54;20022;31
2023/11/25 01:29:58;;;;;;;0.38;0.10;;;1.50;99.90;;;;;;2604096;46;20815;31
2023/11/25 01:32:33;;;;;;;3.08;0.30;;;1.50;99.90;;;;;;2585846;54;20804;31
2023/11/25 01:35:09;;;;;;;1.00;0.20;;;1.40;99.90;;;;;;2585856;54;20921;31
2023/11/25 01:37:41;;;;;;;1.45;0.20;;;1.40;99.90;;;;;;2585712;54;20294;31
2023/11/25 01:40:17;;;;;;;0.40;0.20;;;1.40;99.90;;;;;;2585701;54;20089;31
2023/11/25 01:42:53;;;;;;;3.40;0.30;;;1.40;99.90;;;;;;2585296;54;21896;31
2023/11/25 01:45:29;;;;;;;0.45;0.20;;;1.30;99.90;;;;;;2585274;54;20053;31
2023/11/25 01:48:05;;;;;;;0.55;0.10;;;1.40;99.90;;;;;;2585609;54;19934;31
2023/11/25 01:50:39;;;;;;;0.97;0.30;;;1.30;99.90;;;;;;2585676;54;20033;31
2023/11/25 01:53:13;;;;;;;0.80;0.50;;;1.30;99.90;;;;;;2585923;54;20988;31
2023/11/25 01:55:49;;;;;;;1.85;0.60;;;1.40;99.90;;;;;;2585686;54;21788;31
2023/11/25 01:58:24;;;;;;;3.57;0.70;;;1.40;99.90;;;;;;2585596;54;20804;31
2023/11/25 02:00:59;;;;;;;4.15;1.02;;;1.40;99.90;;;;;;2585447;54;20956;31
2023/11/25 02:03:33;;;;;;;3.30;1.15;;;1.40;99.90;;;;;;2585492;54;21024;31
2023/11/25 02:06:11;;;;;;;2.85;1.40;;;1.40;99.90;;;;;;2585024;54;21085;31
2023/11/25 02:08:46;;;;;;;3.08;1.65;;;1.40;99.90;;;;;;2604034;46;20050;31
2023/11/25 02:11:23;;;;;;;2.60;1.20;;;1.40;99.90;;;;;;2585929;54;21162;31
2023/11/25 02:13:57;;;;;;;2.53;1.00;;;1.40;99.90;;;;;;2585601;54;20757;31
2023/11/25 02:16:30;;;;;;;3.42;1.20;;;1.30;99.90;;;;;;2585487;54;20783;31
2023/11/25 02:19:07;;;;;;;4.90;1.70;;;1.30;99.90;;;;;;2585524;54;20903;31
2023/11/25 02:21:41;;;;;;;;;;;1.30;99.90;;;;;;2585673;54;20937;31
2023/11/25 02:24:19;;;;;;;4.15;1.60;;;1.30;99.90;;;;;;2585471;54;19941;31
2023/11/25 02:27:00;;;;;;;3.00;1.60;;;1.30;99.90;;;;;;2585618;54;20951;31
2023/11/25 02:29:36;;;;;;;3.08;1.40;;;1.30;99.90;;;;;;2585515;54;20807;31
2023/11/25 02:32:09;;;;;;;3.20;1.73;;;1.30;99.90;;;;;;2585502;54;20100;31
2023/11/25 02:34:45;;;;;;;3.60;1.30;;;1.30;99.90;;;;;;2603872;46;20295;31
2023/11/25 02:37:20;;;;;;;3.58;1.38;;;1.30;99.90;;;;;;2585504;54;21333;31
2023/11/25 02:39:58;;;;;;;2.42;1.40;;;1.20;99.90;;;;;;2585598;54;21012;31
2023/11/25 02:42:33;;;;;;;2.40;1.65;;;1.20;99.90;;;;;;2585329;54;20031;31
2023/11/25 02:45:07;;;;;;;3.20;1.50;;;1.20;99.90;;;;;;2585431;54;20924;31
2023/11/25 02:47:43;;;;;;;4.00;1.38;;;1.20;99.90;;;;;;2585551;54;20897;31
2023/11/25 02:50:18;;;;;;;3.20;1.77;;;1.10;99.90;;;;;;2585437;54;20030;31
2023/11/25 02:52:54;;;;;;;2.38;1.05;;;1.20;99.90;;;;;;2584521;54;19942;31
2023/11/25 02:55:31;;;;;;;4.20;1.80;;;1.10;99.90;;;;;;2585216;54;20026;31
2023/11/25 02:58:04;;;;;;;3.00;1.02;;;1.10;99.90;;;;;;2604031;46;21159;31
2023/11/25 03:00:40;;;;;;;2.92;1.40;;;1.10;99.90;;;;;;2585242;54;20954;31
2023/11/25 03:03:22;;;;;;;4.45;1.50;;;1.10;99.90;;;;;;2603998;46;20888;31
2023/11/25 03:05:59;;;;;;;4.65;1.50;;;1.10;99.90;;;;;;2585092;54;20948;31
2023/11/25 03:08:34;;;;;;;4.00;1.53;;;1.10;99.90;;;;;;2585514;54;20034;31
2023/11/25 03:11:12;;;;;;;2.37;1.50;;;1.10;99.90;;;;;;2584638;54;21194;31
2023/11/25 03:13:45;;;;;;;3.10;1.30;;;1.10;99.90;;;;;;2585411;54;20034;31
2023/11/25 03:16:24;;;;;;;3.28;1.75;;;1.00;99.90;;;;;;2585319;54;20943;31
2023/11/25 03:19:00;;;;;;;7.00;1.90;;;1.00;99.90;;;;;;2585209;54;20053;31
2023/11/25 03:21:34;;;;;;;2.20;1.50;;;1.00;99.90;;;;;;2585296;54;20866;31
2023/11/25 03:24:09;;;;;;;6.47;1.85;;;1.00;99.90;;;;;;2585155;54;20034;31
2023/11/25 03:26:46;;;;;;;3.30;1.65;;;1.00;99.90;;;;;;2603870;46;20781;31
2023/11/25 03:29:20;;;;;;;3.70;1.80;;;1.00;99.90;;;;;;2585376;54;20054;31
2023/11/25 03:31:54;;;;;;;2.03;1.13;;;1.00;99.90;;;;;;2585144;54;20064;31
2023/11/25 03:34:28;;;;;;;2.95;1.40;;;1.00;99.90;;;;;;2585353;54;20265;31
2023/11/25 03:37:02;;;;;;;3.17;1.20;;;1.00;99.90;;;;;;2772770;31;22464;31
2023/11/25 03:39:35;;;;;;;3.55;1.30;;;0.90;99.90;;;;;;2585269;54;19961;31
2023/11/25 03:42:13;;;;;;;2.80;1.10;;;0.90;99.90;;;;;;2585207;54;20918;31
2023/11/25 03:44:47;;;;;;;1.98;1.00;;;0.90;99.90;;;;;;2585190;54;20027;31
2023/11/25 03:47:20;;;;;;;2.55;1.17;;;0.90;99.90;;;;;;2683589;39;22400;31
2023/11/25 03:49:53;;;;;;;1.70;1.10;;;0.90;99.90;;;;;;2585451;54;20034;31
2023/11/25 03:52:28;;;;;;;2.35;0.90;;;0.90;99.90;;;;;;2584935;54;20051;31
2023/11/25 03:55:03;;;;;;;4.25;1.30;;;0.90;99.90;;;;;;2585478;54;20816;31
2023/11/25 03:57:41;;;;;;;2.83;1.30;;;0.90;99.90;;;;;;2603870;46;20941;31
2023/11/25 04:00:17;;;;;;;6.20;1.75;;;0.90;99.90;;;;;;2603502;46;20050;31
2023/11/25 04:02:52;;;;;;;;;;;0.90;99.90;;;;;;2585633;54;20823;31
2023/11/25 04:05:26;;;;;;;3.95;1.70;;;0.90;99.90;;;;;;2584805;54;20706;31
2023/11/25 04:08:01;;;;;;;4.72;1.77;;;1.00;99.90;;;;;;2585197;54;20049;31
2023/11/25 04:10:36;;;;;;;3.27;1.80;;;1.00;99.90;;;;;;2603949;46;19945;31
2023/11/25 04:13:13;;;;;;;3.45;1.50;;;1.00;99.90;;;;;;2585173;54;20034;31
2023/11/25 04:15:49;;;;;;;4.00;1.75;;;1.00;99.90;;;;;;2585157;54;20064;31
2023/11/25 04:18:22;;;;;;;5.82;1.90;;;1.00;99.90;;;;;;2584701;54;21039;31
2023/11/25 04:20:58;;;;;;;5.40;1.80;;;1.00;99.90;;;;;;2585183;54;20745;31
2023/11/25 04:23:32;;;;;;;6.28;1.77;;;1.10;99.90;;;;;;2584974;54;20935;31
2023/11/25 04:26:05;;;;;;;4.13;1.97;;;1.00;99.90;;;;;;2585028;54;20022;31
2023/11/25 04:28:40;;;;;;;3.13;1.40;;;1.10;99.90;;;;;;2683315;39;22302;31
2023/11/25 04:31:15;;;;;;;3.83;1.67;;;1.10;99.90;;;;;;2585174;54;20889;31
2023/11/25 04:33:50;;;;;;;2.63;1.23;;;1.10;99.90;;;;;;2585301;54;20031;31
2023/11/25 04:36:25;;;;;;;2.35;1.30;;;1.00;99.90;;;;;;2585232;54;20030;31
2023/11/25 04:38:59;;;;;;;2.35;1.05;;;1.00;99.90;;;;;;2585382;54;20072;31
2023/11/25 04:41:33;;;;;;;6.20;1.63;;;1.00;99.90;;;;;;2585031;54;20712;31
2023/11/25 04:44:11;;;;;;;2.70;1.53;;;1.00;99.90;;;;;;2585184;54;20926;31
2023/11/25 04:46:46;;;;;;;3.25;1.10;;;1.00;99.90;;;;;;2584892;54;20929;31
2023/11/25 04:49:21;;;;;;;2.30;1.30;;;0.90;99.90;;;;;;2584955;54;20152;31
2023/11/25 04:51:56;;;;;;;2.55;1.25;;;0.90;99.90;;;;;;2584978;54;20818;31
2023/11/25 04:54:29;;;;;;;5.10;2.08;;;0.90;99.90;;;;;;2603719;47;20260;31
2023/11/25 04:57:02;;;;;;;3.10;1.50;;;0.90;99.90;;;;;;2585162;54;20033;31
2023/11/25 04:59:38;;;;;;;1.70;0.80;;;0.90;99.90;;;;;;2585068;54;20947;31
2023/11/25 05:02:11;;;;;;;;;;;0.90;99.90;;;;;;2585564;54;20026;31
2023/11/25 05:04:44;;;;;;;6.18;1.42;;;0.90;99.90;;;;;;2603139;47;20892;31
2023/11/25 05:07:17;;;;;;;1.58;0.63;;;0.90;99.90;;;;;;2585281;54;20963;31
2023/11/25 05:09:50;;;;;;;2.50;1.20;;;0.80;99.90;;;;;;2584942;54;20026;31
2023/11/25 05:12:23;;;;;;;2.33;1.10;;;0.80;99.90;;;;;;2585255;54;20990;31
2023/11/25 05:15:00;;;;;;;3.53;1.17;;;0.90;99.90;;;;;;2584996;54;20023;31
2023/11/25 05:17:33;;;;;;;1.77;0.88;;;0.90;99.90;;;;;;2683231;39;22299;31
2023/11/25 05:20:15;;;;;;;3.50;1.00;;;0.90;99.90;;;;;;2585781;54;20777;31
2023/11/25 05:22:49;;;;;;;1.55;0.82;;;0.80;99.90;;;;;;2585603;54;20925;31
2023/11/25 05:25:23;;;;;;;1.90;1.10;;;0.90;99.90;;;;;;2585973;54;20029;31
2023/11/25 05:27:55;;;;;;;5.30;0.80;;;0.80;99.90;;;;;;2585748;54;20058;31
2023/11/25 05:30:31;;;;;;;3.57;0.90;;;0.80;99.90;;;;;;2596566;46;20894;31
2023/11/25 05:33:08;;;;;;;3.05;1.00;;;0.80;99.90;;;;;;2585682;54;20030;31
2023/11/25 05:35:42;;;;;;;1.50;0.90;;;0.80;99.90;;;;;;2702237;39;22266;31
2023/11/25 05:38:17;;;;;;;2.75;1.20;;;0.80;99.90;;;;;;2702139;39;21020;31
2023/11/25 05:40:52;;;;;;;3.05;0.98;;;0.80;99.90;;;;;;2585717;54;20798;31
2023/11/25 05:43:25;;;;;;;2.13;0.90;;;0.80;99.90;;;;;;2585406;54;20823;31
2023/11/25 05:45:58;;;;;;;3.50;1.10;;;0.80;99.90;;;;;;2603811;46;20990;31
2023/11/25 05:48:34;;;;;;;3.40;1.05;;;0.80;99.90;;;;;;2585764;54;20026;31
2023/11/25 05:51:06;;;;;;;3.17;1.10;;;0.80;99.90;;;;;;2585490;54;20116;31
2023/11/25 05:53:39;;;;;;;1.33;0.75;;;0.80;99.90;;;;;;2585503;54;20026;31
2023/11/25 05:56:12;;;;;;;3.33;1.00;;;0.80;99.90;;;;;;2585607;54;20030;31
2023/11/25 05:58:47;;;;;;;2.33;0.90;;;0.80;99.90;;;;;;2604569;46;20032;31
2023/11/25 06:01:20;;;;;;;2.80;0.80;;;0.80;99.90;;;;;;2585619;54;20092;31
2023/11/25 06:03:56;;;;;;;3.42;1.17;;;0.80;99.90;;;;;;2585386;54;20033;31
2023/11/25 06:06:31;;;;;;;3.83;0.90;;;0.80;99.90;;;;;;2585564;54;20023;31
2023/11/25 06:09:05;;;;;;;4.63;0.93;;;0.80;99.90;;;;;;2585434;54;20619;31
2023/11/25 06:11:39;;;;;;;2.40;0.90;;;0.80;99.90;;;;;;2585760;54;20049;31
2023/11/25 06:14:15;;;;;;;2.63;0.80;;;0.80;99.90;;;;;;2585914;54;22423;31
2023/11/25 06:16:49;;;;;;;2.70;0.90;;;0.80;99.90;;;;;;2585475;54;21008;31
2023/11/25 06:19:29;;;;;;;1.80;1.00;;;0.80;99.90;;;;;;2585328;54;20325;31
2023/11/25 06:22:04;;;;;;;2.10;0.75;;;0.80;99.90;;;;;;2585445;54;20034;31
2023/11/25 06:24:37;;;;;;;4.47;0.82;;;0.80;99.90;;;;;;2604454;46;20022;31
2023/11/25 06:27:10;;;;;;;1.40;0.73;;;0.80;99.90;;;;;;2585394;54;20799;31
2023/11/25 06:29:44;;;;;;;2.90;0.70;;;0.70;99.90;;;;;;2585476;54;20999;31
2023/11/25 06:32:18;;;;;;;1.45;0.70;;;0.80;99.90;;;;;;2585376;54;20911;31
2023/11/25 06:34:56;;;;;;;2.65;0.85;;;0.80;99.90;;;;;;2585937;54;20034;31
2023/11/25 06:37:31;;;;;;;1.43;0.50;;;0.80;99.90;;;;;;2585362;54;20783;31
2023/11/25 06:40:11;;;;;;;3.80;1.00;;;0.70;99.90;;;;;;2585319;54;21026;31
2023/11/25 06:42:44;;;;;;;1.70;0.80;;;0.70;99.90;;;;;;2603977;46;20111;31
2023/11/25 06:45:21;;;;;;;2.03;1.10;;;0.70;99.90;;;;;;2585646;54;20026;31
2023/11/25 06:47:55;;;;;;;3.33;1.70;;;0.70;99.90;;;;;;2585125;54;20049;31
2023/11/25 06:50:31;;;;;;;4.20;1.75;;;0.70;99.90;;;;;;2585689;54;21286;31
2023/11/25 06:53:07;;;;;;;4.22;1.40;;;0.70;99.90;;;;;;2585300;54;20027;31
2023/11/25 06:55:41;;;;;;;2.35;1.15;;;0.70;99.90;;;;;;2585496;54;20803;31
2023/11/25 06:58:14;;;;;;;5.25;1.25;;;0.70;99.90;;;;;;2604191;46;21257;31
2023/11/25 07:00:47;;;;;;;4.20;1.03;;;0.70;99.90;;;;;;2585505;54;20033;31
2023/11/25 07:03:20;;;;;;;1.98;0.90;;;0.70;99.90;;;;;;2585520;54;20760;31
2023/11/25 07:05:57;;;;;;;1.30;0.95;;;0.70;99.90;;;;;;2585610;54;20026;31
2023/11/25 07:08:32;;;;;;;6.07;1.02;;;0.70;99.90;;;;;;2585264;54;20121;31
2023/11/25 07:11:10;;;;;;;2.20;0.60;;;0.70;99.90;;;;;;2604296;46;19941;31
2023/11/25 07:13:44;;;;;;;2.50;0.70;;;0.70;99.90;;;;;;2603760;46;21151;31
2023/11/25 07:16:19;;;;;;;2.20;0.85;;;0.70;99.90;;;;;;2585570;54;20053;31
2023/11/25 07:18:54;;;;;;;3.05;0.73;;;0.70;99.90;;;;;;2585380;54;20031;31
2023/11/25 07:21:33;;;;;;;2.20;0.80;;;0.70;99.90;;;;;;2603758;46;20037;31
2023/11/25 07:24:08;;;;;;;3.80;1.17;;;0.70;99.90;;;;;;2603781;46;20057;31
2023/11/25 07:26:51;;;;;;;2.20;0.70;;;0.70;99.90;;;;;;2585328;54;19941;31
2023/11/25 07:29:28;;;;;;;1.93;0.83;;;0.70;99.90;;;;;;2604063;46;20066;31
2023/11/25 07:32:03;;;;;;;1.70;0.68;;;0.70;99.90;;;;;;2585119;54;21077;31
2023/11/25 07:34:37;;;;;;;5.50;0.90;;;0.70;99.90;;;;;;2603799;46;21478;31
2023/11/25 07:37:15;;;;;;;3.70;1.10;;;0.70;99.90;;;;;;2585297;54;20939;31
2023/11/25 07:39:53;;;;;;;3.20;0.80;;;0.80;99.90;;;;;;2585236;54;20030;31
2023/11/25 07:42:28;;;;;;;1.60;0.88;;;0.80;99.90;;;;;;2683069;39;22342;31
2023/11/25 07:45:03;;;;;;;3.07;0.87;;;0.80;99.90;;;;;;2585189;54;20031;31
2023/11/25 07:47:37;;;;;;;2.47;1.00;;;0.80;99.90;;;;;;2584985;54;20057;31
2023/11/25 07:50:14;;;;;;;2.10;0.80;;;0.80;99.90;;;;;;2604038;46;20937;31
2023/11/25 07:52:54;;;;;;;2.35;1.30;;;0.80;99.90;;;;;;2603624;46;20808;31
2023/11/25 07:55:28;;;;;;;1.40;0.80;;;0.80;99.90;;;;;;2585260;54;22705;31
2023/11/25 07:58:02;;;;;;;2.55;0.93;;;0.80;99.90;;;;;;2585161;54;20929;31
2023/11/25 08:00:35;;;;;;;1.83;0.80;;;0.90;99.90;;;;;;2585221;54;20029;31
2023/11/25 08:03:12;;;;;;;1.95;0.77;;;0.90;99.90;;;;;;2603158;46;20027;31
2023/11/25 08:05:48;;;;;;;0.88;0.47;;;0.90;99.90;;;;;;2585134;54;21042;31
2023/11/25 08:08:27;;;;;;;2.33;0.85;;;0.90;99.90;;;;;;2603806;46;19935;31
2023/11/25 08:11:03;;;;;;;3.60;0.70;;;1.00;99.90;;;;;;2585208;54;20957;31
2023/11/25 08:13:38;;;;;;;2.20;0.80;;;1.00;99.90;;;;;;2585140;54;20053;31
2023/11/25 08:16:13;;;;;;;1.75;0.90;;;1.00;99.90;;;;;;2585366;54;19934;31
2023/11/25 08:18:48;;;;;;;1.70;1.00;;;1.10;99.90;;;;;;2585070;54;20030;31
2023/11/25 08:21:24;;;;;;;2.47;0.73;;;1.10;99.90;;;;;;2585304;54;20964;31
2023/11/25 08:24:03;;;;;;;2.67;0.63;;;1.10;99.90;;;;;;2585022;54;20928;31
2023/11/25 08:26:41;;;;;;;2.97;0.60;;;1.10;99.90;;;;;;2585048;54;20923;31
2023/11/25 08:29:13;;;;;;;2.65;0.75;;;1.20;99.90;;;;;;2603227;47;20834;31
2023/11/25 08:31:49;;;;;;;1.73;0.70;;;1.20;99.90;;;;;;2603391;47;20156;31
2023/11/25 08:34:24;;;;;;;3.40;0.85;;;1.20;99.90;;;;;;2603559;47;21001;31
2023/11/25 08:37:00;;;;;;;1.30;0.40;;;1.20;99.90;;;;;;2585146;54;20022;31
2023/11/25 08:39:39;;;;;;;1.97;0.53;;;1.20;99.90;;;;;;2585142;54;20895;31
2023/11/25 08:42:15;;;;;;;1.77;0.63;;;1.20;99.90;;;;;;2585043;54;20026;31
2023/11/25 08:44:50;;;;;;;1.47;0.50;;;1.20;99.90;;;;;;2584862;54;20082;31
2023/11/25 08:47:28;;;;;;;1.40;0.70;;;1.30;99.90;;;;;;2585143;54;21350;31
2023/11/25 08:50:09;;;;;;;3.38;0.47;;;1.30;99.90;;;;;;2584907;54;20048;31
2023/11/25 08:52:41;;;;;;;1.60;0.55;;;1.30;99.90;;;;;;2585195;54;20029;31
2023/11/25 08:55:25;;;;;;;3.58;0.80;;;1.30;99.90;;;;;;2585192;54;20059;31
2023/11/25 08:58:07;;;;;;;3.72;0.95;;;1.40;99.90;;;;;;2585725;54;20037;31
2023/11/25 09:00:43;;;;;;;3.05;1.40;;;1.40;99.90;;;;;;2585970;54;20937;31
2023/11/25 09:06:11;;;;;;;4.60;1.17;;;1.40;99.90;;;;;;2604786;46;20886;31
2023/11/25 09:11:51;;;;;;;2.95;1.65;;;1.30;99.90;;;;;;2585401;54;20026;31
2023/11/25 09:17:06;;;;;;;3.37;1.23;;;1.40;99.90;;;;;;2585672;54;20031;31
2023/11/25 09:19:42;;;;;;;4.50;1.20;;;1.40;99.90;;;;;;2604255;46;20926;31
2023/11/25 09:22:18;;;;;;;3.53;0.90;;;1.50;99.90;;;;;;2585758;54;20033;31
2023/11/25 09:24:55;;;;;;;3.80;0.98;;;1.50;99.90;;;;;;2585826;54;20902;31
2023/11/25 09:27:34;;;;;;;4.80;1.13;;;1.50;99.90;;;;;;2585755;54;20912;31
2023/11/25 09:30:13;;;;;;;5.57;0.95;;;1.50;99.90;;;;;;2585562;54;20895;31
2023/11/25 09:38:17;;;;;;;1.73;0.77;;;1.60;99.90;;;;;;2585537;54;20026;31
2023/11/25 09:40:52;;;;;;;3.33;1.15;;;1.60;99.90;;;;;;2603989;46;20939;31
2023/11/25 09:43:31;;;;;;;3.35;0.88;;;1.60;99.90;;;;;;2585737;54;20034;31
2023/11/25 09:46:04;;;;;;;1.70;0.70;;;1.60;99.90;;;;;;2585771;54;20026;31
2023/11/25 09:48:43;;;;;;;4.40;0.80;;;1.60;99.90;;;;;;2604231;46;20058;31
2023/11/25 09:53:58;;;;;;;1.88;0.85;;;1.70;99.90;;;;;;2585783;54;20081;31
2023/11/25 09:56:34;;;;;;;5.05;0.50;;;1.70;99.90;;;;;;2585456;54;20057;31
2023/11/25 09:59:11;;;;;;;1.77;0.77;;;1.70;99.90;;;;;;2585774;54;21079;31
2023/11/25 10:01:50;;;;;;;2.75;1.00;;;1.70;99.90;;;;;;2585798;54;20813;31
2023/11/25 10:04:27;;;;;;;2.67;0.90;;;1.70;99.90;;;;;;2585715;54;20836;31
2023/11/25 10:07:01;;;;;;;4.03;0.80;;;1.60;99.90;;;;;;2585524;54;20829;31
2023/11/25 10:12:39;;;;;;;2.50;0.90;;;1.80;99.90;;;;;;2584219;54;21031;31
2023/11/25 10:15:17;;;;;;;1.42;0.65;;;1.80;99.90;;;;;;2585357;54;20877;31
2023/11/25 10:33:03;;;;;;;4.85;0.80;;;1.80;99.90;;;;;;2585231;54;20809;31
2023/11/25 10:35:47;;;;;;;3.63;0.80;;;1.80;99.90;;;;;;2683340;39;21587;31
2023/11/25 10:44:31;;;;;;;4.40;0.75;;;2.20;99.90;;;;;;2585406;54;20930;31
2023/11/25 10:47:06;;;;;;;3.50;0.80;;;2.10;99.90;;;;;;2604013;46;20936;31
2023/11/25 10:52:32;;;;;;;6.45;0.82;;;2.10;99.90;;;;;;2585594;54;20946;31
2023/11/25 10:58:19;;;;;;;1.37;0.70;;;2.10;99.90;;;;;;2585045;54;20072;31
2023/11/25 11:00:55;;;;;;;1.67;0.80;;;2.20;99.90;;;;;;2604163;46;20238;31
2023/11/25 11:34:06;;;;;;;5.18;0.82;;;2.10;99.90;;;;;;2585073;54;20089;31
2023/11/25 11:46:10;;;;;;;2.10;0.80;;;2.00;99.90;;;;;;2585279;54;20027;31
2023/11/25 11:48:44;;;;;;;2.57;0.60;;;2.00;99.90;;;;;;2603704;46;20799;31
2023/11/25 11:54:30;;;;;;;4.93;0.80;;;2.10;99.90;;;;;;2584850;54;20902;31
2023/11/25 12:21:14;;;;;;;1.00;0.40;;;2.20;99.90;;;;;;2603274;47;20810;31
2023/11/25 12:39:11;;;;;;;1.50;0.65;;;2.50;99.90;;;;;;2702382;39;21066;31
2023/11/25 12:45:00;;;;;;;2.15;0.60;;;2.50;99.90;;;;;;2585854;54;20924;31
2023/11/25 13:18:37;;;;;;;5.22;1.27;;;2.40;99.90;;;;;;2604165;46;21104;31
2023/11/25 14:01:49;;;;;;;8.43;2.25;;;2.30;99.90;;;;;;2585990;54;22247;31
2023/11/25 14:13:36;;;;;;;5.32;1.77;;;2.30;99.90;;;;;;2585209;54;20030;31
2023/11/25 14:29:00;;;;;;;4.75;1.25;;;2.30;99.90;;;;;;2584537;54;21433;31
2023/11/25 14:31:48;;;;;;;3.63;1.37;;;2.30;99.90;;;;;;2603224;46;20976;31
2023/11/25 14:52:32;;;;;;;3.57;1.77;;;2.10;99.90;;;;;;2584589;54;20089;31
2023/11/25 15:09:56;;;;;;;5.13;2.22;;;2.10;99.90;;;;;;2584619;54;20974;31
2023/11/25 16:22:09;;;;;;;13.07;5.77;;;2.20;99.90;;;;;;2584176;54;20891;31
2023/11/25 16:25:05;;;;;;;12.95;5.80;;;2.20;99.90;;;;;;2584898;54;20800;31
2023/11/25 16:27:47;;;;;;;13.90;5.70;;;2.20;99.90;;;;;;2585109;54;20963;31
2023/11/25 16:30:23;;;;;;;11.05;5.60;;;2.20;99.90;;;;;;2603426;47;20129;31
2023/11/25 16:33:00;;;;;;;14.93;6.80;;;2.20;99.90;;;;;;2603960;47;20974;31
2023/11/25 16:35:33;;;;;;;;;;;2.20;99.90;;;;;;2585047;54;20028;31
2023/11/25 16:38:12;;;;;;;21.10;8.00;;;2.20;99.90;;;;;;2682797;39;20412;31
2023/11/25 16:40:53;;;;;;;17.45;5.70;;;2.20;99.90;;;;;;2603732;47;20230;31
2023/11/25 18:17:29;;;;;;;25.37;8.30;;;1.70;99.90;;;;;;2584614;54;20989;31
2023/11/25 18:20:05;;;;;;;18.95;8.80;;;1.70;99.90;;;;;;2585716;54;20054;31
2023/11/25 18:22:38;;;;;;;22.13;7.67;;;1.70;99.90;;;;;;2585480;54;20057;31
2023/11/25 18:25:13;;;;;;;18.60;7.80;;;1.70;99.90;;;;;;2604214;46;20979;31
2023/11/25 18:27:47;;;;;;;19.98;7.63;;;1.70;99.90;;;;;;2585568;54;20726;31
2023/11/25 18:30:22;;;;;;;21.95;8.00;;;1.70;99.90;;;;;;2604069;46;20059;31
2023/11/25 18:32:58;;;;;;;17.43;6.57;;;1.70;99.90;;;;;;2683293;39;21676;31
2023/11/25 18:35:33;;;;;;;;;;;1.70;99.90;;;;;;2603996;46;20052;31
2023/11/25 18:38:07;;;;;;;14.73;6.00;;;1.70;99.90;;;;;;2585421;54;19989;31
2023/11/25 18:40:41;;;;;;;15.27;5.85;;;1.70;99.90;;;;;;2585214;54;20108;31
2023/11/25 18:43:18;;;;;;;21.95;7.00;;;1.70;99.90;;;;;;2603764;46;20027;31
2023/11/25 18:45:55;;;;;;;17.47;6.90;;;1.60;99.90;;;;;;2585605;54;20023;31
2023/11/25 18:48:31;;;;;;;21.10;7.35;;;1.70;99.90;;;;;;2585359;54;20821;31
2023/11/25 18:51:05;;;;;;;18.50;6.90;;;1.70;99.90;;;;;;2585238;54;20089;31
2023/11/25 18:53:37;;;;;;;21.03;7.87;;;1.70;99.90;;;;;;2683437;39;22263;31
2023/11/25 18:56:11;;;;;;;18.25;8.15;;;1.70;99.90;;;;;;2585394;54;20900;31
2023/11/25 18:58:45;;;;;;;16.25;7.20;;;1.70;99.90;;;;;;2585301;54;20903;31
2023/11/25 19:01:29;;;;;;;15.65;6.35;;;1.70;99.90;;;;;;2604338;46;20026;31
2023/11/25 19:04:05;;;;;;;17.67;7.10;;;1.70;99.90;;;;;;2585344;54;20930;31
2023/11/25 19:06:39;;;;;;;;;;;1.70;99.90;;;;;;2585184;54;20860;31
2023/11/25 19:09:16;;;;;;;16.98;6.20;;;1.60;99.90;;;;;;2585331;54;19938;31
2023/11/25 19:11:49;;;;;;;10.30;5.25;;;1.60;99.90;;;;;;2585302;54;20049;31
2023/11/25 19:14:22;;;;;;;12.90;6.32;;;1.60;99.90;;;;;;2585308;54;20930;31
2023/11/25 19:16:55;;;;;;;14.90;6.93;;;1.50;99.90;;;;;;2585281;54;20022;31
2023/11/25 19:19:31;;;;;;;13.33;6.90;;;1.50;99.90;;;;;;2702053;39;21555;31
2023/11/25 19:22:07;;;;;;;16.00;6.40;;;1.40;99.90;;;;;;2585468;54;20030;31
2023/11/25 19:24:43;;;;;;;15.32;6.32;;;1.40;99.90;;;;;;2604030;46;19954;31
2023/11/25 19:27:16;;;;;;;15.45;6.05;;;1.40;99.90;;;;;;2585437;54;20034;31
2023/11/25 19:29:49;;;;;;;15.95;6.55;;;1.30;99.90;;;;;;2585242;54;20776;31
2023/11/25 19:32:22;;;;;;;17.70;7.20;;;1.30;99.90;;;;;;2585323;54;20055;31
2023/11/25 19:34:58;;;;;;;13.85;7.20;;;1.30;99.90;;;;;;2585236;54;20053;31
2023/11/25 19:37:31;;;;;;;14.73;7.50;;;1.30;99.90;;;;;;2585094;54;20037;31
2023/11/25 19:40:04;;;;;;;21.25;8.60;;;1.30;99.90;;;;;;2585459;54;20038;31
2023/11/25 19:42:37;;;;;;;23.13;10.17;;;1.20;99.90;;;;;;2585527;54;20820;31
2023/11/25 19:45:11;;;;;;;27.20;9.82;;;1.20;99.90;;;;;;2585179;54;20066;31
2023/11/25 19:47:47;;;;;;;19.70;9.05;;;1.20;99.90;;;;;;2585343;54;20026;31
2023/11/25 19:50:24;;;;;;;23.13;8.60;;;1.20;99.90;;;;;;2585209;54;19941;31
2023/11/25 19:52:57;;;;;;;16.87;9.00;;;1.20;99.90;;;;;;2585082;54;20994;31
2023/11/25 20:23:56;;;;;;;11.60;6.30;;;1.20;99.90;;;;;;2584971;54;20057;31
2023/11/25 20:26:32;;;;;;;15.65;6.90;;;1.30;99.90;;;;;;2585176;54;20246;31
2023/11/25 20:32:07;;;;;;;17.00;5.15;;;1.30;99.90;;;;;;2585009;54;20018;31
2023/11/25 20:34:52;;;;;;;17.95;6.38;;;1.30;99.90;;;;;;2585063;54;20979;31
2023/11/25 20:40:36;;;;;;;13.25;6.32;;;1.30;99.90;;;;;;2584980;54;20936;31
2023/11/25 20:46:05;;;;;;;13.70;6.70;;;1.30;99.90;;;;;;2584181;54;20928;31
2023/11/25 20:51:41;;;;;;;13.82;5.07;;;1.30;99.90;;;;;;2585047;54;20038;31
2023/11/25 20:54:18;;;;;;;8.73;4.60;;;1.30;99.90;;;;;;2586166;54;20829;31
2023/11/25 20:56:56;;;;;;;10.10;4.70;;;1.30;99.90;;;;;;2585042;54;20245;31
2023/11/25 20:59:32;;;;;;;12.05;5.20;;;1.30;99.90;;;;;;2586058;54;20969;31
2023/11/25 21:02:07;;;;;;;11.00;5.15;;;1.40;99.90;;;;;;2585851;54;20927;31
2023/11/25 21:04:42;;;;;;;10.70;4.70;;;1.40;99.90;;;;;;2585661;54;20046;31
2023/11/25 21:07:18;;;;;;;9.68;4.70;;;1.40;99.90;;;;;;2585757;54;20047;31
2023/11/25 21:09:52;;;;;;;11.25;4.95;;;1.40;99.90;;;;;;2585965;54;20156;31
2023/11/25 21:12:29;;;;;;;13.65;4.85;;;1.40;99.90;;;;;;2603800;46;20022;31
2023/11/25 21:15:04;;;;;;;14.90;5.40;;;1.40;99.90;;;;;;2586047;54;20051;31
2023/11/25 21:17:38;;;;;;;11.85;5.55;;;1.40;99.90;;;;;;2585935;54;22516;31
2023/11/25 21:20:14;;;;;;;11.90;5.40;;;1.40;99.90;;;;;;2585981;54;20964;31
2023/11/25 21:22:48;;;;;;;11.55;4.95;;;1.40;99.90;;;;;;2585965;54;20982;31
2023/11/25 21:25:24;;;;;;;9.55;4.50;;;1.50;99.90;;;;;;2585685;54;20062;31
2023/11/25 21:28:01;;;;;;;8.00;4.15;;;1.40;99.90;;;;;;2585841;54;20061;31
2023/11/25 21:30:37;;;;;;;11.68;4.40;;;1.40;99.90;;;;;;2585881;54;20022;31
2023/11/25 21:33:17;;;;;;;8.53;3.83;;;1.40;99.90;;;;;;2585505;54;20026;31
2023/11/25 21:35:54;;;;;;;6.50;3.70;;;1.40;99.90;;;;;;2604282;46;20085;31
2023/11/25 21:38:32;;;;;;;13.13;4.20;;;1.40;99.90;;;;;;2585860;54;20057;31
2023/11/25 22:50:42;;;;;;;8.75;3.35;;;1.10;99.90;;;;;;2584784;54;20085;31
2023/11/25 22:56:26;;;;;;;9.30;5.45;;;1.10;99.90;;;;;;2585301;54;19938;31
2023/11/25 23:02:05;;;;;;;8.50;3.80;;;1.00;99.90;;;;;;2585123;54;20838;31